createdAt,value
2022-08-26T00:00:59.048Z,24.56
2022-08-26T00:03:25.706Z,24.55
2022-08-26T00:05:52.388Z,24.50
2022-08-26T00:08:20.307Z,24.47
2022-08-26T00:10:47.022Z,24.42
2022-08-26T00:13:13.570Z,24.39
2022-08-26T00:15:40.610Z,24.35
2022-08-26T00:18:21.856Z,24.32
2022-08-26T00:20:48.990Z,24.28
2022-08-26T00:23:15.484Z,24.25
2022-08-26T00:25:42.714Z,24.22
2022-08-26T00:28:10.790Z,24.19
2022-08-26T00:30:37.656Z,24.16
2022-08-26T00:33:05.525Z,24.10
2022-08-26T00:35:32.844Z,24.06
2022-08-26T00:38:01.290Z,24.00
2022-08-26T00:40:34.172Z,23.96
2022-08-26T00:43:02.189Z,23.91
2022-08-26T00:45:40.299Z,23.86
2022-08-26T00:48:08.357Z,23.85
2022-08-26T00:50:40.052Z,23.81
2022-08-26T00:53:21.534Z,23.78
2022-08-26T00:55:58.009Z,23.76
2022-08-26T00:58:25.315Z,23.77
2022-08-26T01:00:52.762Z,23.75
2022-08-26T01:03:23.139Z,23.74
2022-08-26T01:05:54.514Z,23.71
2022-08-26T01:08:22.365Z,23.69
2022-08-26T01:10:51.382Z,23.66
2022-08-26T01:13:21.609Z,23.63
2022-08-26T01:15:51.191Z,23.61
2022-08-26T01:18:18.046Z,23.60
2022-08-26T01:21:02.112Z,23.58
2022-08-26T01:23:32.576Z,23.58
2022-08-26T01:26:04.946Z,23.57
2022-08-26T01:28:32.716Z,23.55
2022-08-26T01:31:03.595Z,23.53
2022-08-26T01:33:42.516Z,23.50
2022-08-26T01:36:09.961Z,23.46
2022-08-26T01:38:36.378Z,23.46
2022-08-26T01:41:03.274Z,23.46
2022-08-26T01:43:47.087Z,23.43
2022-08-26T01:46:15.944Z,23.41
2022-08-26T01:48:43.873Z,23.38
2022-08-26T01:51:11.649Z,23.34
2022-08-26T01:53:38.858Z,23.32
2022-08-26T01:56:09.054Z,23.31
2022-08-26T01:59:01.466Z,23.26
2022-08-26T02:01:28.919Z,23.22
2022-08-26T02:04:03.893Z,23.20
2022-08-26T02:06:30.422Z,23.17
2022-08-26T02:09:00.198Z,23.15
2022-08-26T02:11:27.402Z,23.11
2022-08-26T02:14:05.921Z,23.10
2022-08-26T02:19:04.530Z,23.05
2022-08-26T02:21:33.567Z,23.02
2022-08-26T02:24:11.570Z,22.99
2022-08-26T02:26:39.085Z,22.96
2022-08-26T02:29:11.613Z,22.94
2022-08-26T02:31:38.164Z,22.91
2022-08-26T02:34:10.732Z,22.89
2022-08-26T02:36:38.158Z,22.87
2022-08-26T02:39:06.505Z,22.85
2022-08-26T02:41:33.812Z,22.82
2022-08-26T02:44:00.462Z,22.79
2022-08-26T02:46:29.781Z,22.75
2022-08-26T02:48:57.028Z,22.75
2022-08-26T02:51:24.530Z,22.73
2022-08-26T02:53:50.981Z,22.70
2022-08-26T02:56:17.589Z,22.68
2022-08-26T02:58:44.099Z,22.68
2022-08-26T03:01:24.926Z,22.66
2022-08-26T03:03:51.755Z,22.66
2022-08-26T03:06:18.252Z,22.64
2022-08-26T03:08:45.051Z,22.62
2022-08-26T03:11:11.636Z,22.56
2022-08-26T03:13:38.950Z,22.54
2022-08-26T03:16:05.741Z,22.51
2022-08-26T03:18:32.698Z,22.50
2022-08-26T03:21:05.002Z,22.47
2022-08-26T03:23:31.781Z,22.45
2022-08-26T03:25:58.929Z,22.43
2022-08-26T03:28:27.234Z,22.42
2022-08-26T03:30:53.988Z,22.39
2022-08-26T03:33:20.674Z,22.38
2022-08-26T03:35:50.767Z,22.36
2022-08-26T03:38:17.354Z,22.33
2022-08-26T03:40:43.852Z,22.32
2022-08-26T03:43:11.723Z,22.29
2022-08-26T03:45:38.793Z,22.28
2022-08-26T03:48:06.657Z,22.27
2022-08-26T03:50:34.391Z,22.27
2022-08-26T03:53:02.850Z,22.25
2022-08-26T03:55:33.217Z,22.24
2022-08-26T03:58:00.671Z,22.22
2022-08-26T04:00:27.218Z,22.18
2022-08-26T04:02:53.829Z,22.17
2022-08-26T04:05:21.696Z,22.16
2022-08-26T04:07:49.293Z,22.16
2022-08-26T04:10:20.347Z,22.16
2022-08-26T04:12:46.995Z,22.13
2022-08-26T04:15:15.558Z,22.12
2022-08-26T04:17:42.447Z,22.11
2022-08-26T04:20:09.687Z,22.10
2022-08-26T04:22:36.128Z,22.09
2022-08-26T04:25:02.645Z,22.09
2022-08-26T04:27:29.072Z,22.07
2022-08-26T04:29:55.553Z,22.04
2022-08-26T04:32:22.508Z,22.02
2022-08-26T04:34:48.957Z,21.99
2022-08-26T04:37:16.323Z,22.02
2022-08-26T04:39:43.888Z,22.03
2022-08-26T04:42:10.839Z,22.03
2022-08-26T04:44:37.690Z,22.03
2022-08-26T04:47:04.710Z,22.02
2022-08-26T04:49:35.266Z,22.03
2022-08-26T04:52:02.551Z,22.04
2022-08-26T04:54:29.012Z,22.01
2022-08-26T04:56:55.745Z,22.01
2022-08-26T04:59:22.600Z,22.05
2022-08-26T05:01:52.492Z,22.05
2022-08-26T05:04:20.110Z,22.07
2022-08-26T05:06:49.672Z,22.07
2022-08-26T05:09:18.329Z,22.07
2022-08-26T05:11:48.516Z,22.08
2022-08-26T05:14:19.696Z,22.07
2022-08-26T05:16:47.734Z,22.09
2022-08-26T05:19:14.521Z,22.11
2022-08-26T05:21:45.252Z,22.10
2022-08-26T05:24:13.758Z,22.09
2022-08-26T05:26:40.206Z,22.12
2022-08-26T05:29:06.656Z,22.15
2022-08-26T05:31:34.647Z,22.16
2022-08-26T05:34:03.611Z,22.20
2022-08-26T05:36:32.832Z,22.23
2022-08-26T05:39:00.397Z,22.27
2022-08-26T05:41:36.401Z,22.30
2022-08-26T05:44:07.825Z,22.33
2022-08-26T05:46:36.534Z,22.35
2022-08-26T05:49:04.685Z,22.38
2022-08-26T05:51:32.333Z,22.41
2022-08-26T05:54:01.779Z,22.43
2022-08-26T05:56:30.038Z,22.46
2022-08-26T05:58:58.388Z,22.50
2022-08-26T06:01:27.625Z,22.55
2022-08-26T06:03:57.519Z,22.56
2022-08-26T06:06:29.261Z,22.62
2022-08-26T06:08:59.058Z,22.65
2022-08-26T06:11:27.109Z,22.67
2022-08-26T06:13:54.977Z,22.72
2022-08-26T06:16:24.436Z,22.77
2022-08-26T06:18:52.349Z,22.83
2022-08-26T06:21:32.970Z,22.90
2022-08-26T06:24:27.169Z,22.96
2022-08-26T06:26:56.723Z,23.02
2022-08-26T06:29:25.384Z,23.06
2022-08-26T06:31:53.413Z,23.15
2022-08-26T06:34:20.173Z,23.19
2022-08-26T06:36:47.297Z,23.24
2022-08-26T06:39:15.644Z,23.32
2022-08-26T06:41:44.899Z,23.42
2022-08-26T06:44:12.670Z,23.49
2022-08-26T06:46:39.787Z,23.54
2022-08-26T06:49:06.368Z,23.57
2022-08-26T06:51:36.158Z,23.60
2022-08-26T06:54:04.493Z,23.67
2022-08-26T06:56:39.444Z,23.76
2022-08-26T06:59:07.696Z,23.82
2022-08-26T07:01:37.146Z,23.85
2022-08-26T07:04:10.515Z,23.94
2022-08-26T07:06:40.218Z,24.02
2022-08-26T07:09:09.939Z,24.09
2022-08-26T07:11:37.903Z,24.15
2022-08-26T07:14:04.990Z,24.16
2022-08-26T07:16:31.675Z,24.26
2022-08-26T07:18:59.566Z,24.33
2022-08-26T07:21:28.057Z,24.40
2022-08-26T07:23:58.710Z,24.45
2022-08-26T07:26:30.363Z,24.50
2022-08-26T07:28:57.914Z,24.51
2022-08-26T07:31:27.778Z,24.61
2022-08-26T07:33:54.888Z,24.67
2022-08-26T07:36:21.908Z,24.73
2022-08-26T07:38:48.556Z,24.77
2022-08-26T07:41:16.967Z,24.85
2022-08-26T07:43:43.781Z,24.88
2022-08-26T07:46:15.840Z,24.92
2022-08-26T07:48:46.136Z,24.96
2022-08-26T07:51:14.904Z,25.04
2022-08-26T07:53:42.479Z,25.10
2022-08-26T07:56:08.974Z,25.18
2022-08-26T07:58:37.968Z,25.25
2022-08-26T08:01:04.800Z,25.32
2022-08-26T08:03:34.207Z,25.33
2022-08-26T08:06:00.634Z,25.45
2022-08-26T08:08:29.317Z,25.49
2022-08-26T08:10:56.684Z,25.58
2022-08-26T08:13:23.518Z,25.66
2022-08-26T08:15:50.429Z,25.73
2022-08-26T08:18:17.639Z,25.79
2022-08-26T08:21:04.870Z,25.84
2022-08-26T08:23:32.134Z,25.89
2022-08-26T08:26:06.781Z,25.95
2022-08-26T08:28:35.288Z,26.02
2022-08-26T08:31:02.174Z,26.03
2022-08-26T08:33:32.779Z,26.10
2022-08-26T08:36:00.365Z,26.14
2022-08-26T08:38:27.229Z,26.20
2022-08-26T08:40:53.970Z,26.27
2022-08-26T08:43:31.994Z,26.29
2022-08-26T08:46:08.413Z,26.33
2022-08-26T08:48:40.038Z,26.29
2022-08-26T08:51:18.829Z,26.41
2022-08-26T08:53:47.273Z,26.49
2022-08-26T08:56:25.697Z,26.51
2022-08-26T08:59:15.251Z,26.57
2022-08-26T09:02:10.938Z,26.64
2022-08-26T09:04:49.624Z,26.68
2022-08-26T09:07:22.734Z,26.75
2022-08-26T09:10:00.142Z,26.83
2022-08-26T09:12:32.235Z,26.90
2022-08-26T09:15:33.148Z,27.02
2022-08-26T09:18:15.141Z,27.12
2022-08-26T09:20:59.037Z,27.14
2022-08-26T09:23:26.184Z,27.26
2022-08-26T09:26:01.548Z,27.32
2022-08-26T09:28:29.722Z,27.34
2022-08-26T09:31:08.000Z,27.38
2022-08-26T09:33:37.356Z,27.49
2022-08-26T09:36:16.195Z,27.54
2022-08-26T09:38:43.617Z,27.54
2022-08-26T09:41:32.670Z,27.61
2022-08-26T09:44:15.675Z,27.65
2022-08-26T09:46:55.589Z,27.76
2022-08-26T09:49:36.070Z,27.75
2022-08-26T09:52:21.933Z,27.73
2022-08-26T09:55:21.036Z,27.79
2022-08-26T09:57:52.593Z,27.88
2022-08-26T10:00:38.524Z,27.98
2022-08-26T10:03:17.338Z,28.01
2022-08-26T10:05:47.625Z,28.06
2022-08-26T10:08:31.065Z,28.14
2022-08-26T10:11:00.023Z,28.15
2022-08-26T10:13:37.906Z,28.15
2022-08-26T10:16:13.356Z,28.15
2022-08-26T10:18:46.361Z,28.22
2022-08-26T10:21:20.457Z,28.24
2022-08-26T10:23:51.361Z,28.25
2022-08-26T10:26:57.574Z,28.35
2022-08-26T10:29:34.210Z,28.43
2022-08-26T10:32:35.248Z,28.49
2022-08-26T10:35:10.227Z,28.53
2022-08-26T10:37:40.307Z,28.61
2022-08-26T10:40:25.671Z,28.65
2022-08-26T10:43:11.256Z,28.71
2022-08-26T10:45:43.800Z,28.76
2022-08-26T10:48:13.961Z,28.82
2022-08-26T10:50:47.361Z,28.90
2022-08-26T10:53:24.949Z,29.01
2022-08-26T10:56:01.397Z,29.07
2022-08-26T10:58:53.766Z,29.16
2022-08-26T11:01:43.176Z,29.20
2022-08-26T11:04:18.816Z,29.24
2022-08-26T11:06:49.054Z,29.27
2022-08-26T11:09:45.703Z,29.33
2022-08-26T11:12:37.325Z,29.38
2022-08-26T11:15:09.481Z,29.43
2022-08-26T11:17:45.066Z,29.50
2022-08-26T11:20:33.684Z,29.55
2022-08-26T11:23:12.230Z,29.54
2022-08-26T11:25:57.328Z,29.56
2022-08-26T11:28:44.667Z,29.61
2022-08-26T11:31:20.990Z,29.63
2022-08-26T11:33:59.119Z,29.65
2022-08-26T11:36:45.378Z,29.70
2022-08-26T11:39:24.181Z,29.74
2022-08-26T11:41:53.812Z,29.76
2022-08-26T11:44:23.024Z,29.83
2022-08-26T11:46:59.925Z,29.94
2022-08-26T11:49:31.729Z,30.00
2022-08-26T11:52:13.893Z,30.12
2022-08-26T11:54:40.477Z,30.18
2022-08-26T11:57:11.982Z,30.29
2022-08-26T11:59:40.169Z,30.37
2022-08-26T12:02:14.996Z,30.51
2022-08-26T12:04:44.515Z,30.57
2022-08-26T12:07:11.621Z,30.66
2022-08-26T12:09:54.854Z,30.64
2022-08-26T12:12:34.658Z,30.72
2022-08-26T12:15:29.684Z,30.84
2022-08-26T12:17:56.272Z,30.82
2022-08-26T12:20:48.334Z,30.85
2022-08-26T12:23:41.878Z,30.86
2022-08-26T12:26:12.603Z,30.86
2022-08-26T12:28:43.714Z,30.71
2022-08-26T12:31:10.188Z,30.83
2022-08-26T12:33:36.716Z,30.77
2022-08-26T12:36:05.093Z,30.77
2022-08-26T12:38:32.298Z,30.81
2022-08-26T12:40:58.729Z,30.73
2022-08-26T12:43:45.308Z,30.69
2022-08-26T12:46:26.272Z,30.77
2022-08-26T12:48:52.791Z,30.82
2022-08-26T12:51:26.114Z,30.81
2022-08-26T12:53:52.945Z,30.84
2022-08-26T12:56:30.008Z,30.81
2022-08-26T12:59:26.926Z,30.90
2022-08-26T13:01:54.010Z,30.90
2022-08-26T13:04:42.460Z,31.00
2022-08-26T13:07:18.080Z,30.59
2022-08-26T13:09:44.591Z,30.49
2022-08-26T13:12:11.593Z,30.13
2022-08-26T13:14:38.126Z,30.08
2022-08-26T13:17:04.549Z,30.10
2022-08-26T13:19:31.284Z,30.14
2022-08-26T13:21:59.997Z,30.18
2022-08-26T13:24:31.501Z,30.18
2022-08-26T13:26:57.945Z,30.16
2022-08-26T13:29:24.448Z,30.12
2022-08-26T13:31:51.336Z,30.18
2022-08-26T13:34:20.627Z,30.16
2022-08-26T13:36:48.101Z,30.11
2022-08-26T13:39:14.583Z,30.07
2022-08-26T13:41:41.121Z,29.95
2022-08-26T13:44:08.026Z,29.96
2022-08-26T13:46:34.579Z,29.85
2022-08-26T13:49:01.126Z,29.81
2022-08-26T13:51:28.099Z,29.71
2022-08-26T13:53:54.658Z,29.68
2022-08-26T13:56:22.456Z,29.57
2022-08-26T13:58:50.173Z,29.52
2022-08-26T14:01:17.485Z,29.52
2022-08-26T14:03:44.075Z,29.46
2022-08-26T14:06:10.715Z,29.41
2022-08-26T14:08:38.374Z,29.32
2022-08-26T14:11:04.926Z,29.32
2022-08-26T14:13:31.438Z,29.30
2022-08-26T14:15:59.619Z,29.27
2022-08-26T14:18:33.321Z,29.24
2022-08-26T14:21:00.051Z,29.21
2022-08-26T14:23:27.470Z,29.18
2022-08-26T14:25:54.309Z,29.13
2022-08-26T14:28:20.785Z,29.11
2022-08-26T14:30:53.465Z,29.08
2022-08-26T14:33:24.940Z,29.06
2022-08-26T14:35:51.543Z,29.04
2022-08-26T14:38:18.125Z,29.02
2022-08-26T14:40:45.147Z,29.00
2022-08-26T14:43:13.820Z,28.97
2022-08-26T14:48:14.069Z,28.94
2022-08-26T14:50:40.525Z,28.92
2022-08-26T14:53:25.682Z,28.89
2022-08-26T14:55:52.639Z,28.89
2022-08-26T14:58:19.074Z,28.83
2022-08-26T15:00:45.512Z,28.80
2022-08-26T15:03:12.107Z,28.75
2022-08-26T15:05:39.810Z,28.73
2022-08-26T15:08:10.345Z,28.67
2022-08-26T15:10:37.307Z,28.63
2022-08-26T15:13:03.889Z,28.56
2022-08-26T15:15:30.381Z,28.46
2022-08-26T15:17:58.187Z,28.48
2022-08-26T15:20:25.675Z,28.45
2022-08-26T15:22:52.199Z,28.47
2022-08-26T15:25:19.811Z,28.45
2022-08-26T15:27:46.244Z,28.52
2022-08-26T15:30:13.081Z,28.58
2022-08-26T15:32:39.522Z,28.61
2022-08-26T15:35:09.067Z,28.75
2022-08-26T15:37:36.382Z,28.86
2022-08-26T15:40:03.742Z,28.98
2022-08-26T15:42:30.296Z,29.08
2022-08-26T15:44:56.768Z,29.15
2022-08-26T15:47:23.726Z,29.22
2022-08-26T15:49:50.153Z,29.29
2022-08-26T15:52:16.740Z,29.38
2022-08-26T15:54:43.176Z,29.38
2022-08-26T15:57:12.327Z,29.47
2022-08-26T15:59:40.172Z,29.52
2022-08-26T16:02:07.327Z,29.50
2022-08-26T16:04:33.840Z,29.54
2022-08-26T16:07:00.519Z,29.49
2022-08-26T16:09:27.761Z,29.40
2022-08-26T16:11:56.594Z,29.47
2022-08-26T16:14:23.408Z,29.47
2022-08-26T16:16:50.477Z,29.47
2022-08-26T16:19:17.209Z,29.42
2022-08-26T16:21:44.007Z,29.30
2022-08-26T16:24:11.475Z,29.30
2022-08-26T16:26:38.807Z,29.30
2022-08-26T16:29:08.592Z,29.27
2022-08-26T16:31:35.600Z,29.22
2022-08-26T16:34:02.105Z,29.17
2022-08-26T16:36:28.579Z,29.09
2022-08-26T16:38:56.319Z,29.03
2022-08-26T16:41:24.151Z,28.95
2022-08-26T16:43:50.610Z,28.91
2022-08-26T16:46:17.162Z,28.94
2022-08-26T16:48:44.098Z,29.02
2022-08-26T16:51:19.005Z,29.01
2022-08-26T16:53:46.090Z,28.92
2022-08-26T16:56:18.319Z,28.86
2022-08-26T16:58:45.489Z,28.81
2022-08-26T17:01:11.967Z,28.80
2022-08-26T17:03:38.498Z,28.75
2022-08-26T17:06:05.033Z,28.69
2022-08-26T17:08:31.873Z,28.58
2022-08-26T17:11:01.588Z,28.50
2022-08-26T17:13:35.758Z,28.45
2022-08-26T17:16:04.774Z,28.38
2022-08-26T17:18:31.468Z,28.30
2022-08-26T17:21:02.020Z,28.23
2022-08-26T17:23:28.493Z,28.17
2022-08-26T17:25:54.951Z,28.10
2022-08-26T17:28:21.414Z,28.00
2022-08-26T17:30:47.940Z,27.93
2022-08-26T17:33:14.433Z,27.87
2022-08-26T17:35:43.628Z,27.80
2022-08-26T17:38:10.273Z,27.72
2022-08-26T17:40:36.954Z,27.65
2022-08-26T17:43:03.510Z,27.55
2022-08-26T17:45:29.960Z,27.50
2022-08-26T17:47:56.895Z,27.42
2022-08-26T17:50:23.927Z,27.38
2022-08-26T17:52:50.381Z,27.32
2022-08-26T17:55:18.449Z,27.29
2022-08-26T17:57:53.142Z,27.26
2022-08-26T18:00:22.090Z,27.22
2022-08-26T18:02:48.517Z,27.18
2022-08-26T18:05:17.396Z,27.13
2022-08-26T18:07:44.751Z,27.09
2022-08-26T18:10:13.780Z,27.06
2022-08-26T18:12:41.542Z,27.04
2022-08-26T18:15:10.121Z,26.98
2022-08-26T18:17:38.991Z,26.94
2022-08-26T18:20:08.967Z,26.92
2022-08-26T18:22:35.406Z,26.88
2022-08-26T18:25:01.914Z,26.86
2022-08-26T18:27:28.352Z,26.83
2022-08-26T18:29:55.411Z,26.80
2022-08-26T18:32:21.894Z,26.77
2022-08-26T18:34:48.436Z,26.72
2022-08-26T18:37:15.029Z,26.69
2022-08-26T18:39:41.725Z,26.65
2022-08-26T18:42:08.791Z,26.61
2022-08-26T18:44:35.386Z,26.58
2022-08-26T18:47:01.970Z,26.55
2022-08-26T18:49:28.810Z,26.51
2022-08-26T18:51:55.314Z,26.46
2022-08-26T18:54:22.259Z,26.44
2022-08-26T18:56:48.801Z,26.39
2022-08-26T18:59:15.379Z,26.36
2022-08-26T19:01:42.250Z,26.34
2022-08-26T19:04:15.387Z,26.30
2022-08-26T19:06:43.016Z,26.27
2022-08-26T19:09:10.835Z,26.25
2022-08-26T19:11:42.866Z,26.23
2022-08-26T19:14:12.992Z,26.20
2022-08-26T19:16:41.428Z,26.16
2022-08-26T19:19:07.918Z,26.11
2022-08-26T19:21:35.674Z,26.04
2022-08-26T19:24:04.728Z,26.02
2022-08-26T19:26:31.799Z,25.96
2022-08-26T19:28:59.083Z,25.90
2022-08-26T19:31:26.122Z,25.86
2022-08-26T19:33:52.642Z,25.82
2022-08-26T19:36:23.444Z,25.79
2022-08-26T19:38:50.182Z,25.76
2022-08-26T19:41:24.563Z,25.66
2022-08-26T19:43:54.679Z,25.62
2022-08-26T19:46:26.438Z,25.60
2022-08-26T19:48:55.693Z,25.58
2022-08-26T19:51:28.579Z,25.56
2022-08-26T19:53:56.619Z,25.54
2022-08-26T19:56:23.497Z,25.51
2022-08-26T19:58:50.212Z,25.49
2022-08-26T20:01:17.755Z,25.45
2022-08-26T20:03:44.719Z,25.39
2022-08-26T20:06:12.947Z,25.36
2022-08-26T20:08:40.733Z,25.34
2022-08-26T20:11:11.907Z,25.28
2022-08-26T20:13:39.066Z,25.25
2022-08-26T20:16:05.724Z,25.21
2022-08-26T20:18:50.866Z,25.14
2022-08-26T20:21:26.180Z,25.10
2022-08-26T20:24:03.332Z,25.00
2022-08-26T20:26:31.913Z,24.99
2022-08-26T20:28:58.522Z,24.87
2022-08-26T20:31:25.724Z,24.85
2022-08-26T20:33:52.488Z,24.81
2022-08-26T20:36:20.814Z,24.78
2022-08-26T20:38:48.009Z,24.74
2022-08-26T20:41:14.604Z,24.70
2022-08-26T20:43:42.742Z,24.64
2022-08-26T20:46:18.003Z,24.60
2022-08-26T20:48:47.740Z,24.57
2022-08-26T20:51:14.940Z,24.54
2022-08-26T20:53:41.566Z,24.50
2022-08-26T20:56:09.194Z,24.48
2022-08-26T20:58:36.603Z,24.47
2022-08-26T21:01:07.461Z,24.45
2022-08-26T21:03:34.743Z,24.40
2022-08-26T21:06:01.264Z,24.41
2022-08-26T21:08:27.703Z,24.38
2022-08-26T21:10:54.145Z,24.41
2022-08-26T21:13:20.569Z,24.41
2022-08-26T21:15:47.049Z,24.42
2022-08-26T21:18:13.513Z,24.40
2022-08-26T21:20:40.021Z,24.39
2022-08-26T21:23:06.445Z,24.38
2022-08-26T21:25:32.921Z,24.33
2022-08-26T21:27:59.370Z,24.32
2022-08-26T21:30:25.849Z,24.30
2022-08-26T21:32:52.299Z,24.29
2022-08-26T21:35:18.761Z,24.27
2022-08-26T21:37:45.240Z,24.26
2022-08-26T21:40:11.922Z,24.23
2022-08-26T21:42:38.688Z,24.21
2022-08-26T21:45:06.180Z,24.15
2022-08-26T21:47:32.640Z,24.13
2022-08-26T21:49:59.367Z,24.14
2022-08-26T21:52:26.356Z,24.14
2022-08-26T21:54:57.351Z,24.15
2022-08-26T21:57:24.012Z,24.14
2022-08-26T21:59:50.501Z,24.14
2022-08-26T22:02:17.026Z,24.13
2022-08-26T22:04:48.604Z,24.11
2022-08-26T22:07:17.203Z,24.10
2022-08-26T22:09:44.514Z,24.09
2022-08-26T22:12:11.526Z,24.09
2022-08-26T22:14:39.014Z,24.06
2022-08-26T22:17:05.973Z,23.96
2022-08-26T22:19:32.414Z,23.93
2022-08-26T22:22:00.889Z,23.88
2022-08-26T22:24:27.512Z,23.78
2022-08-26T22:26:54.938Z,23.74
2022-08-26T22:29:21.869Z,23.69
2022-08-26T22:31:48.373Z,23.62
2022-08-26T22:34:17.178Z,23.57
2022-08-26T22:36:45.858Z,23.57
2022-08-26T22:39:14.481Z,23.54
2022-08-26T22:41:42.997Z,23.53
2022-08-26T22:44:10.468Z,23.50
2022-08-26T22:46:38.569Z,23.48
2022-08-26T22:49:05.135Z,23.48
2022-08-26T22:51:31.923Z,23.50
2022-08-26T22:53:58.412Z,23.49
2022-08-26T22:56:24.852Z,23.50
2022-08-26T22:58:51.320Z,23.50
2022-08-26T23:01:17.924Z,23.52
2022-08-26T23:03:45.137Z,23.55
2022-08-26T23:06:11.684Z,23.57
2022-08-26T23:08:39.244Z,23.57
2022-08-26T23:11:09.996Z,23.55
2022-08-26T23:13:37.047Z,23.50
2022-08-26T23:16:06.183Z,23.49
2022-08-26T23:18:32.837Z,23.49
2022-08-26T23:20:59.325Z,23.45
2022-08-26T23:23:27.350Z,23.45
2022-08-26T23:25:55.069Z,23.44
2022-08-26T23:28:22.383Z,23.44
2022-08-26T23:30:48.884Z,23.43
2022-08-26T23:33:15.483Z,23.43
2022-08-26T23:35:42.142Z,23.43
2022-08-26T23:38:09.888Z,23.42
2022-08-26T23:40:38.789Z,23.42
2022-08-26T23:43:07.368Z,23.42
2022-08-26T23:45:34.779Z,23.38
2022-08-26T23:48:01.482Z,23.35
2022-08-26T23:50:48.528Z,23.32
2022-08-26T23:53:21.589Z,23.30
2022-08-26T23:55:50.590Z,23.26
2022-08-26T23:58:18.790Z,23.22
